sensor_id;sensor_type;location;lat;lon;timestamp;P1;durP1;ratioP1;P2;durP2;ratioP2
22628;SDS011;11481;53.694;9.910;2022-08-01T00:00:02;10.75;;;5.55;;
22628;SDS011;11481;53.694;9.910;2022-08-01T00:02:34;9.77;;;4.53;;
22628;SDS011;11481;53.694;9.910;2022-08-01T00:05:05;10.15;;;4.53;;
22628;SDS011;11481;53.694;9.910;2022-08-01T00:07:35;9.13;;;4.82;;
22628;SDS011;11481;53.694;9.910;2022-08-01T00:10:03;10.00;;;5.25;;
22628;SDS011;11481;53.694;9.910;2022-08-01T00:12:32;10.35;;;4.80;;
22628;SDS011;11481;53.694;9.910;2022-08-01T00:14:59;10.95;;;5.35;;
22628;SDS011;11481;53.694;9.910;2022-08-01T00:17:26;10.75;;;5.35;;
22628;SDS011;11481;53.694;9.910;2022-08-01T00:19:53;10.60;;;5.20;;
22628;SDS011;11481;53.694;9.910;2022-08-01T00:22:19;12.02;;;5.50;;
22628;SDS011;11481;53.694;9.910;2022-08-01T00:24:46;13.38;;;5.78;;
22628;SDS011;11481;53.694;9.910;2022-08-01T00:27:12;12.80;;;5.60;;
22628;SDS011;11481;53.694;9.910;2022-08-01T00:29:39;12.15;;;4.90;;
22628;SDS011;11481;53.694;9.910;2022-08-01T00:32:26;15.00;;;5.43;;
22628;SDS011;11481;53.694;9.910;2022-08-01T00:34:52;15.63;;;5.72;;
22628;SDS011;11481;53.694;9.910;2022-08-01T00:37:19;10.27;;;5.43;;
22628;SDS011;11481;53.694;9.910;2022-08-01T00:39:45;12.75;;;5.78;;
22628;SDS011;11481;53.694;9.910;2022-08-01T00:42:12;12.02;;;5.30;;
22628;SDS011;11481;53.694;9.910;2022-08-01T00:44:40;10.38;;;4.68;;
22628;SDS011;11481;53.694;9.910;2022-08-01T00:47:07;11.13;;;4.80;;
22628;SDS011;11481;53.694;9.910;2022-08-01T00:49:33;10.43;;;5.45;;
22628;SDS011;11481;53.694;9.910;2022-08-01T00:52:00;9.32;;;4.28;;
22628;SDS011;11481;53.694;9.910;2022-08-01T00:54:31;13.75;;;5.70;;
22628;SDS011;11481;53.694;9.910;2022-08-01T00:56:58;11.85;;;4.47;;
22628;SDS011;11481;53.694;9.910;2022-08-01T00:59:25;10.75;;;5.53;;
22628;SDS011;11481;53.694;9.910;2022-08-01T01:01:52;10.98;;;4.03;;
22628;SDS011;11481;53.694;9.910;2022-08-01T01:04:19;9.93;;;4.13;;
22628;SDS011;11481;53.694;9.910;2022-08-01T01:06:48;12.95;;;5.45;;
22628;SDS011;11481;53.694;9.910;2022-08-01T01:15:39;10.20;;;4.45;;
22628;SDS011;11481;53.694;9.910;2022-08-01T01:20:37;10.38;;;4.20;;
22628;SDS011;11481;53.694;9.910;2022-08-01T01:28:59;10.30;;;4.90;;
22628;SDS011;11481;53.694;9.910;2022-08-01T01:31:31;13.10;;;5.03;;
22628;SDS011;11481;53.694;9.910;2022-08-01T01:34:06;11.20;;;5.25;;
22628;SDS011;11481;53.694;9.910;2022-08-01T01:36:35;13.52;;;5.35;;
22628;SDS011;11481;53.694;9.910;2022-08-01T01:39:03;14.18;;;5.13;;
22628;SDS011;11481;53.694;9.910;2022-08-01T01:41:30;14.57;;;4.93;;
22628;SDS011;11481;53.694;9.910;2022-08-01T01:43:57;11.90;;;4.60;;
22628;SDS011;11481;53.694;9.910;2022-08-01T01:46:26;12.45;;;5.00;;
22628;SDS011;11481;53.694;9.910;2022-08-01T01:48:54;10.68;;;4.47;;
22628;SDS011;11481;53.694;9.910;2022-08-01T01:51:23;9.20;;;4.50;;
22628;SDS011;11481;53.694;9.910;2022-08-01T01:53:52;10.25;;;4.35;;
22628;SDS011;11481;53.694;9.910;2022-08-01T01:56:21;9.93;;;4.22;;
22628;SDS011;11481;53.694;9.910;2022-08-01T01:58:53;10.07;;;4.40;;
22628;SDS011;11481;53.694;9.910;2022-08-01T02:01:25;6.80;;;3.58;;
22628;SDS011;11481;53.694;9.910;2022-08-01T02:04:13;6.65;;;3.85;;
22628;SDS011;11481;53.694;9.910;2022-08-01T02:06:41;10.65;;;4.18;;
22628;SDS011;11481;53.694;9.910;2022-08-01T02:09:11;9.52;;;4.50;;
22628;SDS011;11481;53.694;9.910;2022-08-01T02:11:38;9.40;;;4.38;;
22628;SDS011;11481;53.694;9.910;2022-08-01T02:14:27;7.55;;;3.35;;
22628;SDS011;11481;53.694;9.910;2022-08-01T02:16:55;9.05;;;4.32;;
22628;SDS011;11481;53.694;9.910;2022-08-01T02:19:24;8.43;;;4.00;;
22628;SDS011;11481;53.694;9.910;2022-08-01T02:21:59;8.77;;;4.32;;
22628;SDS011;11481;53.694;9.910;2022-08-01T02:24:37;8.32;;;3.92;;
22628;SDS011;11481;53.694;9.910;2022-08-01T02:27:12;7.78;;;4.43;;
22628;SDS011;11481;53.694;9.910;2022-08-01T02:29:52;10.48;;;4.13;;
22628;SDS011;11481;53.694;9.910;2022-08-01T02:32:32;6.68;;;3.80;;
22628;SDS011;11481;53.694;9.910;2022-08-01T02:35:03;11.25;;;4.80;;
22628;SDS011;11481;53.694;9.910;2022-08-01T02:37:34;8.30;;;4.18;;
22628;SDS011;11481;53.694;9.910;2022-08-01T02:40:12;9.68;;;3.97;;
22628;SDS011;11481;53.694;9.910;2022-08-01T02:42:40;6.90;;;3.38;;
22628;SDS011;11481;53.694;9.910;2022-08-01T02:45:11;7.97;;;4.28;;
22628;SDS011;11481;53.694;9.910;2022-08-01T02:47:40;8.38;;;4.97;;
22628;SDS011;11481;53.694;9.910;2022-08-01T02:50:09;7.13;;;4.07;;
22628;SDS011;11481;53.694;9.910;2022-08-01T02:52:38;9.52;;;3.58;;
22628;SDS011;11481;53.694;9.910;2022-08-01T02:55:07;7.30;;;3.92;;
22628;SDS011;11481;53.694;9.910;2022-08-01T02:57:35;7.07;;;3.70;;
22628;SDS011;11481;53.694;9.910;2022-08-01T03:00:17;11.65;;;4.55;;
22628;SDS011;11481;53.694;9.910;2022-08-01T03:02:50;12.05;;;3.78;;
22628;SDS011;11481;53.694;9.910;2022-08-01T03:05:20;10.48;;;3.47;;
22628;SDS011;11481;53.694;9.910;2022-08-01T03:07:48;8.40;;;3.92;;
22628;SDS011;11481;53.694;9.910;2022-08-01T03:10:16;7.72;;;3.33;;
22628;SDS011;11481;53.694;9.910;2022-08-01T03:12:43;8.00;;;4.10;;
22628;SDS011;11481;53.694;9.910;2022-08-01T03:15:13;7.57;;;3.65;;
22628;SDS011;11481;53.694;9.910;2022-08-01T03:17:41;8.95;;;4.05;;
22628;SDS011;11481;53.694;9.910;2022-08-01T03:20:10;7.72;;;3.55;;
22628;SDS011;11481;53.694;9.910;2022-08-01T03:22:40;10.85;;;4.32;;
22628;SDS011;11481;53.694;9.910;2022-08-01T03:25:08;13.68;;;3.75;;
22628;SDS011;11481;53.694;9.910;2022-08-01T03:27:36;8.07;;;3.65;;
22628;SDS011;11481;53.694;9.910;2022-08-01T03:30:04;8.02;;;4.25;;
22628;SDS011;11481;53.694;9.910;2022-08-01T03:32:32;7.28;;;3.70;;
22628;SDS011;11481;53.694;9.910;2022-08-01T03:35:00;8.68;;;3.88;;
22628;SDS011;11481;53.694;9.910;2022-08-01T03:37:27;6.28;;;3.35;;
22628;SDS011;11481;53.694;9.910;2022-08-01T03:40:00;9.93;;;3.65;;
22628;SDS011;11481;53.694;9.910;2022-08-01T03:42:33;6.53;;;3.13;;
22628;SDS011;11481;53.694;9.910;2022-08-01T03:45:10;6.78;;;2.75;;
22628;SDS011;11481;53.694;9.910;2022-08-01T03:47:42;6.28;;;2.83;;
22628;SDS011;11481;53.694;9.910;2022-08-01T03:50:10;10.32;;;2.80;;
22628;SDS011;11481;53.694;9.910;2022-08-01T03:52:39;8.10;;;3.08;;
22628;SDS011;11481;53.694;9.910;2022-08-01T03:55:09;6.05;;;2.60;;
22628;SDS011;11481;53.694;9.910;2022-08-01T03:57:37;4.70;;;2.65;;
22628;SDS011;11481;53.694;9.910;2022-08-01T04:00:05;4.95;;;2.60;;
22628;SDS011;11481;53.694;9.910;2022-08-01T04:02:34;6.05;;;3.40;;
22628;SDS011;11481;53.694;9.910;2022-08-01T04:05:02;5.18;;;2.70;;
22628;SDS011;11481;53.694;9.910;2022-08-01T04:07:32;5.35;;;2.30;;
22628;SDS011;11481;53.694;9.910;2022-08-01T04:10:02;6.32;;;2.45;;
22628;SDS011;11481;53.694;9.910;2022-08-01T04:12:29;5.00;;;2.72;;
22628;SDS011;11481;53.694;9.910;2022-08-01T04:14:56;7.65;;;2.55;;
22628;SDS011;11481;53.694;9.910;2022-08-01T04:17:22;4.97;;;2.83;;
22628;SDS011;11481;53.694;9.910;2022-08-01T04:19:49;12.18;;;2.60;;
22628;SDS011;11481;53.694;9.910;2022-08-01T04:22:16;3.58;;;1.98;;
22628;SDS011;11481;53.694;9.910;2022-08-01T04:24:44;3.63;;;2.05;;
22628;SDS011;11481;53.694;9.910;2022-08-01T04:27:23;3.97;;;1.92;;
22628;SDS011;11481;53.694;9.910;2022-08-01T04:30:16;4.40;;;2.28;;
22628;SDS011;11481;53.694;9.910;2022-08-01T04:32:46;4.57;;;1.55;;
22628;SDS011;11481;53.694;9.910;2022-08-01T04:35:15;5.47;;;1.65;;
22628;SDS011;11481;53.694;9.910;2022-08-01T04:38:04;5.32;;;2.28;;
22628;SDS011;11481;53.694;9.910;2022-08-01T04:40:32;4.32;;;1.80;;
22628;SDS011;11481;53.694;9.910;2022-08-01T04:43:02;4.53;;;2.22;;
22628;SDS011;11481;53.694;9.910;2022-08-01T04:45:29;3.78;;;1.60;;
22628;SDS011;11481;53.694;9.910;2022-08-01T04:47:56;4.00;;;1.98;;
22628;SDS011;11481;53.694;9.910;2022-08-01T04:50:23;4.68;;;1.95;;
22628;SDS011;11481;53.694;9.910;2022-08-01T04:52:50;2.65;;;1.48;;
22628;SDS011;11481;53.694;9.910;2022-08-01T04:55:17;6.45;;;1.17;;
22628;SDS011;11481;53.694;9.910;2022-08-01T04:57:44;2.45;;;1.17;;
22628;SDS011;11481;53.694;9.910;2022-08-01T05:00:14;1.95;;;0.90;;
22628;SDS011;11481;53.694;9.910;2022-08-01T05:02:42;2.17;;;0.95;;
22628;SDS011;11481;53.694;9.910;2022-08-01T05:05:09;3.53;;;1.33;;
22628;SDS011;11481;53.694;9.910;2022-08-01T05:07:38;2.80;;;1.25;;
22628;SDS011;11481;53.694;9.910;2022-08-01T05:10:10;1.98;;;1.25;;
22628;SDS011;11481;53.694;9.910;2022-08-01T05:12:37;2.22;;;1.13;;
22628;SDS011;11481;53.694;9.910;2022-08-01T05:15:04;2.38;;;1.13;;
22628;SDS011;11481;53.694;9.910;2022-08-01T05:17:40;3.15;;;1.27;;
22628;SDS011;11481;53.694;9.910;2022-08-01T05:20:08;2.40;;;1.10;;
22628;SDS011;11481;53.694;9.910;2022-08-01T05:22:35;3.17;;;1.50;;
22628;SDS011;11481;53.694;9.910;2022-08-01T05:25:02;3.65;;;1.20;;
22628;SDS011;11481;53.694;9.910;2022-08-01T05:27:31;2.03;;;1.02;;
22628;SDS011;11481;53.694;9.910;2022-08-01T05:29:59;2.53;;;1.65;;
22628;SDS011;11481;53.694;9.910;2022-08-01T05:32:25;3.38;;;1.80;;
22628;SDS011;11481;53.694;9.910;2022-08-01T05:34:53;2.35;;;1.33;;
22628;SDS011;11481;53.694;9.910;2022-08-01T05:37:20;3.17;;;1.55;;
22628;SDS011;11481;53.694;9.910;2022-08-01T05:39:47;3.80;;;1.98;;
22628;SDS011;11481;53.694;9.910;2022-08-01T05:42:13;4.05;;;1.30;;
22628;SDS011;11481;53.694;9.910;2022-08-01T05:44:40;7.55;;;1.95;;
22628;SDS011;11481;53.694;9.910;2022-08-01T05:47:07;2.50;;;1.38;;
22628;SDS011;11481;53.694;9.910;2022-08-01T05:49:34;9.00;;;1.70;;
22628;SDS011;11481;53.694;9.910;2022-08-01T05:52:00;4.97;;;2.08;;
22628;SDS011;11481;53.694;9.910;2022-08-01T05:54:28;5.32;;;2.20;;
22628;SDS011;11481;53.694;9.910;2022-08-01T05:56:55;2.72;;;1.73;;
22628;SDS011;11481;53.694;9.910;2022-08-01T05:59:25;2.75;;;1.50;;
22628;SDS011;11481;53.694;9.910;2022-08-01T06:01:52;5.13;;;1.45;;
22628;SDS011;11481;53.694;9.910;2022-08-01T06:04:19;4.15;;;2.08;;
22628;SDS011;11481;53.694;9.910;2022-08-01T06:06:46;5.70;;;2.10;;
22628;SDS011;11481;53.694;9.910;2022-08-01T06:09:13;5.53;;;1.52;;
22628;SDS011;11481;53.694;9.910;2022-08-01T06:11:40;4.30;;;2.53;;
22628;SDS011;11481;53.694;9.910;2022-08-01T06:14:06;5.22;;;1.67;;
22628;SDS011;11481;53.694;9.910;2022-08-01T06:16:33;3.78;;;1.73;;
22628;SDS011;11481;53.694;9.910;2022-08-01T06:19:00;4.15;;;2.00;;
22628;SDS011;11481;53.694;9.910;2022-08-01T06:21:26;7.30;;;1.77;;
22628;SDS011;11481;53.694;9.910;2022-08-01T06:23:53;8.82;;;2.22;;
22628;SDS011;11481;53.694;9.910;2022-08-01T06:26:20;7.38;;;2.47;;
22628;SDS011;11481;53.694;9.910;2022-08-01T06:28:46;5.38;;;2.30;;
22628;SDS011;11481;53.694;9.910;2022-08-01T06:31:13;6.53;;;3.15;;
22628;SDS011;11481;53.694;9.910;2022-08-01T06:33:41;5.40;;;2.65;;
22628;SDS011;11481;53.694;9.910;2022-08-01T06:36:08;8.27;;;3.42;;
22628;SDS011;11481;53.694;9.910;2022-08-01T06:38:35;8.18;;;2.72;;
22628;SDS011;11481;53.694;9.910;2022-08-01T06:41:02;9.20;;;3.67;;
22628;SDS011;11481;53.694;9.910;2022-08-01T06:43:29;14.25;;;4.40;;
22628;SDS011;11481;53.694;9.910;2022-08-01T06:45:55;11.15;;;3.83;;
22628;SDS011;11481;53.694;9.910;2022-08-01T06:48:22;6.18;;;4.00;;
22628;SDS011;11481;53.694;9.910;2022-08-01T06:50:48;9.35;;;4.00;;
22628;SDS011;11481;53.694;9.910;2022-08-01T06:53:34;6.45;;;3.20;;
22628;SDS011;11481;53.694;9.910;2022-08-01T06:56:04;10.27;;;3.80;;
22628;SDS011;11481;53.694;9.910;2022-08-01T06:58:32;11.50;;;4.07;;
22628;SDS011;11481;53.694;9.910;2022-08-01T07:01:00;11.15;;;3.45;;
22628;SDS011;11481;53.694;9.910;2022-08-01T07:03:30;15.57;;;4.13;;
22628;SDS011;11481;53.694;9.910;2022-08-01T07:06:17;7.18;;;3.58;;
22628;SDS011;11481;53.694;9.910;2022-08-01T07:08:43;10.70;;;3.30;;
22628;SDS011;11481;53.694;9.910;2022-08-01T07:11:10;9.52;;;3.30;;
22628;SDS011;11481;53.694;9.910;2022-08-01T07:13:37;9.07;;;3.28;;
22628;SDS011;11481;53.694;9.910;2022-08-01T07:16:11;5.03;;;2.95;;
22628;SDS011;11481;53.694;9.910;2022-08-01T07:18:38;9.35;;;3.03;;
22628;SDS011;11481;53.694;9.910;2022-08-01T07:21:05;10.90;;;2.60;;
22628;SDS011;11481;53.694;9.910;2022-08-01T07:23:43;5.15;;;2.47;;
22628;SDS011;11481;53.694;9.910;2022-08-01T07:26:11;5.20;;;2.47;;
22628;SDS011;11481;53.694;9.910;2022-08-01T07:28:39;8.73;;;2.80;;
22628;SDS011;11481;53.694;9.910;2022-08-01T07:31:09;8.45;;;2.30;;
22628;SDS011;11481;53.694;9.910;2022-08-01T07:33:36;10.13;;;2.33;;
22628;SDS011;11481;53.694;9.910;2022-08-01T07:36:14;7.13;;;2.17;;
22628;SDS011;11481;53.694;9.910;2022-08-01T07:38:41;8.07;;;2.33;;
22628;SDS011;11481;53.694;9.910;2022-08-01T07:41:08;5.82;;;1.67;;
22628;SDS011;11481;53.694;9.910;2022-08-01T07:43:35;5.00;;;1.73;;
22628;SDS011;11481;53.694;9.910;2022-08-01T07:46:02;6.40;;;1.65;;
22628;SDS011;11481;53.694;9.910;2022-08-01T07:48:30;9.50;;;1.63;;
22628;SDS011;11481;53.694;9.910;2022-08-01T07:50:56;4.13;;;1.38;;
22628;SDS011;11481;53.694;9.910;2022-08-01T07:53:23;7.45;;;2.30;;
22628;SDS011;11481;53.694;9.910;2022-08-01T07:55:50;9.80;;;2.05;;
22628;SDS011;11481;53.694;9.910;2022-08-01T07:58:17;5.03;;;1.58;;
22628;SDS011;11481;53.694;9.910;2022-08-01T08:00:43;8.70;;;1.88;;
22628;SDS011;11481;53.694;9.910;2022-08-01T08:03:10;7.78;;;2.30;;
22628;SDS011;11481;53.694;9.910;2022-08-01T08:05:37;5.90;;;1.75;;
22628;SDS011;11481;53.694;9.910;2022-08-01T08:08:23;22.33;;;2.35;;
22628;SDS011;11481;53.694;9.910;2022-08-01T08:10:51;4.32;;;2.20;;
22628;SDS011;11481;53.694;9.910;2022-08-01T08:13:18;4.75;;;1.77;;
22628;SDS011;11481;53.694;9.910;2022-08-01T08:15:46;5.22;;;2.15;;
22628;SDS011;11481;53.694;9.910;2022-08-01T08:18:13;8.52;;;2.28;;
22628;SDS011;11481;53.694;9.910;2022-08-01T08:20:43;9.13;;;2.38;;
22628;SDS011;11481;53.694;9.910;2022-08-01T08:23:09;3.92;;;1.55;;
22628;SDS011;11481;53.694;9.910;2022-08-01T08:26:09;7.35;;;1.80;;
22628;SDS011;11481;53.694;9.910;2022-08-01T08:28:37;5.28;;;2.30;;
22628;SDS011;11481;53.694;9.910;2022-08-01T08:31:05;5.68;;;2.13;;
22628;SDS011;11481;53.694;9.910;2022-08-01T08:33:51;7.25;;;2.00;;
22628;SDS011;11481;53.694;9.910;2022-08-01T08:36:18;4.53;;;1.60;;
22628;SDS011;11481;53.694;9.910;2022-08-01T08:38:45;2.55;;;1.30;;
22628;SDS011;11481;53.694;9.910;2022-08-01T08:41:11;8.70;;;1.95;;
22628;SDS011;11481;53.694;9.910;2022-08-01T08:43:45;5.38;;;1.63;;
22628;SDS011;11481;53.694;9.910;2022-08-01T08:46:12;5.03;;;2.15;;
22628;SDS011;11481;53.694;9.910;2022-08-01T08:48:40;4.35;;;1.63;;
22628;SDS011;11481;53.694;9.910;2022-08-01T08:51:08;10.80;;;2.53;;
22628;SDS011;11481;53.694;9.910;2022-08-01T08:53:38;8.55;;;2.25;;
22628;SDS011;11481;53.694;9.910;2022-08-01T08:56:13;3.83;;;1.48;;
22628;SDS011;11481;53.694;9.910;2022-08-01T08:58:44;7.30;;;1.67;;
22628;SDS011;11481;53.694;9.910;2022-08-01T09:01:11;7.80;;;1.10;;
22628;SDS011;11481;53.694;9.910;2022-08-01T09:03:39;6.65;;;1.55;;
22628;SDS011;11481;53.694;9.910;2022-08-01T09:06:06;4.63;;;1.35;;
22628;SDS011;11481;53.694;9.910;2022-08-01T09:08:34;4.13;;;1.40;;
22628;SDS011;11481;53.694;9.910;2022-08-01T09:11:01;7.40;;;1.35;;
22628;SDS011;11481;53.694;9.910;2022-08-01T09:13:28;3.50;;;1.10;;
22628;SDS011;11481;53.694;9.910;2022-08-01T09:15:55;3.83;;;0.85;;
22628;SDS011;11481;53.694;9.910;2022-08-01T09:18:30;5.50;;;1.58;;
22628;SDS011;11481;53.694;9.910;2022-08-01T09:21:16;5.90;;;1.73;;
22628;SDS011;11481;53.694;9.910;2022-08-01T09:23:49;6.45;;;1.65;;
22628;SDS011;11481;53.694;9.910;2022-08-01T09:26:29;5.60;;;1.63;;
22628;SDS011;11481;53.694;9.910;2022-08-01T09:28:59;2.33;;;1.27;;
22628;SDS011;11481;53.694;9.910;2022-08-01T09:31:39;5.85;;;1.10;;
22628;SDS011;11481;53.694;9.910;2022-08-01T09:34:12;4.63;;;1.65;;
22628;SDS011;11481;53.694;9.910;2022-08-01T09:36:47;2.65;;;1.00;;
22628;SDS011;11481;53.694;9.910;2022-08-01T09:39:24;2.67;;;1.23;;
22628;SDS011;11481;53.694;9.910;2022-08-01T09:41:53;5.97;;;1.25;;
22628;SDS011;11481;53.694;9.910;2022-08-01T09:44:41;8.02;;;1.77;;
22628;SDS011;11481;53.694;9.910;2022-08-01T09:47:20;4.85;;;1.60;;
22628;SDS011;11481;53.694;9.910;2022-08-01T09:50:12;3.30;;;1.17;;
22628;SDS011;11481;53.694;9.910;2022-08-01T09:52:38;4.80;;;1.40;;
22628;SDS011;11481;53.694;9.910;2022-08-01T09:55:06;2.95;;;1.30;;
22628;SDS011;11481;53.694;9.910;2022-08-01T09:57:33;5.90;;;1.02;;
22628;SDS011;11481;53.694;9.910;2022-08-01T10:00:00;9.07;;;1.33;;
22628;SDS011;11481;53.694;9.910;2022-08-01T10:02:32;2.35;;;0.93;;
22628;SDS011;11481;53.694;9.910;2022-08-01T10:05:04;6.28;;;1.08;;
22628;SDS011;11481;53.694;9.910;2022-08-01T10:07:36;5.88;;;1.42;;
22628;SDS011;11481;53.694;9.910;2022-08-01T10:10:23;4.10;;;1.40;;
22628;SDS011;11481;53.694;9.910;2022-08-01T10:12:54;8.88;;;1.60;;
22628;SDS011;11481;53.694;9.910;2022-08-01T10:15:22;3.10;;;1.60;;
22628;SDS011;11481;53.694;9.910;2022-08-01T10:18:04;4.28;;;1.35;;
22628;SDS011;11481;53.694;9.910;2022-08-01T10:20:51;5.28;;;1.60;;
22628;SDS011;11481;53.694;9.910;2022-08-01T10:23:23;3.55;;;1.95;;
22628;SDS011;11481;53.694;9.910;2022-08-01T10:26:06;3.88;;;1.38;;
22628;SDS011;11481;53.694;9.910;2022-08-01T10:28:34;2.22;;;1.33;;
22628;SDS011;11481;53.694;9.910;2022-08-01T10:31:06;4.63;;;1.65;;
22628;SDS011;11481;53.694;9.910;2022-08-01T10:33:38;3.08;;;1.70;;
22628;SDS011;11481;53.694;9.910;2022-08-01T10:36:20;1.45;;;1.10;;
22628;SDS011;11481;53.694;9.910;2022-08-01T10:38:50;2.80;;;1.67;;
22628;SDS011;11481;53.694;9.910;2022-08-01T10:41:18;5.72;;;1.48;;
22628;SDS011;11481;53.694;9.910;2022-08-01T10:43:45;3.35;;;1.63;;
22628;SDS011;11481;53.694;9.910;2022-08-01T10:46:12;6.20;;;1.30;;
22628;SDS011;11481;53.694;9.910;2022-08-01T10:48:45;5.28;;;1.30;;
22628;SDS011;11481;53.694;9.910;2022-08-01T10:51:26;2.63;;;0.70;;
22628;SDS011;11481;53.694;9.910;2022-08-01T10:54:14;3.22;;;1.20;;
22628;SDS011;11481;53.694;9.910;2022-08-01T10:56:44;1.85;;;1.30;;
22628;SDS011;11481;53.694;9.910;2022-08-01T10:59:14;6.43;;;1.08;;
22628;SDS011;11481;53.694;9.910;2022-08-01T11:02:07;4.15;;;1.50;;
22628;SDS011;11481;53.694;9.910;2022-08-01T11:07:20;6.50;;;1.27;;
22628;SDS011;11481;53.694;9.910;2022-08-01T11:10:04;4.75;;;1.30;;
22628;SDS011;11481;53.694;9.910;2022-08-01T11:12:49;6.68;;;0.88;;
22628;SDS011;11481;53.694;9.910;2022-08-01T11:15:17;2.75;;;1.15;;
22628;SDS011;11481;53.694;9.910;2022-08-01T11:17:56;4.57;;;1.08;;
22628;SDS011;11481;53.694;9.910;2022-08-01T11:20:26;2.08;;;0.90;;
22628;SDS011;11481;53.694;9.910;2022-08-01T11:28:28;4.22;;;1.02;;
22628;SDS011;11481;53.694;9.910;2022-08-01T11:41:24;6.97;;;1.20;;
22628;SDS011;11481;53.694;9.910;2022-08-01T11:52:33;4.25;;;0.95;;
22628;SDS011;11481;53.694;9.910;2022-08-01T11:57:29;1.33;;;0.65;;
22628;SDS011;11481;53.694;9.910;2022-08-01T12:00:21;4.65;;;1.00;;
22628;SDS011;11481;53.694;9.910;2022-08-01T12:02:56;6.47;;;0.93;;
22628;SDS011;11481;53.694;9.910;2022-08-01T12:05:25;3.30;;;0.70;;
22628;SDS011;11481;53.694;9.910;2022-08-01T12:07:56;3.80;;;1.00;;
22628;SDS011;11481;53.694;9.910;2022-08-01T12:10:24;3.45;;;0.80;;
22628;SDS011;11481;53.694;9.910;2022-08-01T12:12:59;5.45;;;1.15;;
22628;SDS011;11481;53.694;9.910;2022-08-01T12:15:31;10.35;;;1.25;;
22628;SDS011;11481;53.694;9.910;2022-08-01T12:18:03;2.25;;;0.85;;
22628;SDS011;11481;53.694;9.910;2022-08-01T12:20:33;3.60;;;0.68;;
22628;SDS011;11481;53.694;9.910;2022-08-01T12:23:19;4.90;;;0.90;;
22628;SDS011;11481;53.694;9.910;2022-08-01T12:25:48;5.28;;;1.05;;
22628;SDS011;11481;53.694;9.910;2022-08-01T12:28:17;1.52;;;0.70;;
22628;SDS011;11481;53.694;9.910;2022-08-01T12:30:46;8.90;;;1.80;;
22628;SDS011;11481;53.694;9.910;2022-08-01T12:33:16;3.92;;;0.70;;
22628;SDS011;11481;53.694;9.910;2022-08-01T12:35:45;3.67;;;0.80;;
22628;SDS011;11481;53.694;9.910;2022-08-01T12:38:15;5.50;;;0.70;;
22628;SDS011;11481;53.694;9.910;2022-08-01T12:40:45;2.05;;;0.80;;
22628;SDS011;11481;53.694;9.910;2022-08-01T12:43:24;1.75;;;0.60;;
22628;SDS011;11481;53.694;9.910;2022-08-01T12:45:55;3.17;;;0.88;;
22628;SDS011;11481;53.694;9.910;2022-08-01T12:48:24;2.67;;;0.50;;
22628;SDS011;11481;53.694;9.910;2022-08-01T12:50:52;1.73;;;0.50;;
22628;SDS011;11481;53.694;9.910;2022-08-01T12:53:20;3.88;;;0.73;;
22628;SDS011;11481;53.694;9.910;2022-08-01T12:55:48;4.72;;;0.80;;
22628;SDS011;11481;53.694;9.910;2022-08-01T12:58:27;3.15;;;0.90;;
22628;SDS011;11481;53.694;9.910;2022-08-01T13:01:06;2.25;;;0.65;;
22628;SDS011;11481;53.694;9.910;2022-08-01T13:03:35;3.70;;;0.50;;
22628;SDS011;11481;53.694;9.910;2022-08-01T13:06:09;3.40;;;0.52;;
22628;SDS011;11481;53.694;9.910;2022-08-01T13:08:42;3.22;;;1.05;;
22628;SDS011;11481;53.694;9.910;2022-08-01T13:11:12;3.65;;;0.90;;
22628;SDS011;11481;53.694;9.910;2022-08-01T13:13:44;1.13;;;0.50;;
22628;SDS011;11481;53.694;9.910;2022-08-01T13:16:15;2.67;;;1.00;;
22628;SDS011;11481;53.694;9.910;2022-08-01T13:19:03;4.35;;;0.60;;
22628;SDS011;11481;53.694;9.910;2022-08-01T13:21:30;5.63;;;0.70;;
22628;SDS011;11481;53.694;9.910;2022-08-01T13:24:22;4.35;;;0.63;;
22628;SDS011;11481;53.694;9.910;2022-08-01T13:26:59;1.90;;;0.60;;
22628;SDS011;11481;53.694;9.910;2022-08-01T13:29:31;3.05;;;0.70;;
22628;SDS011;11481;53.694;9.910;2022-08-01T13:32:16;6.57;;;1.20;;
22628;SDS011;11481;53.694;9.910;2022-08-01T13:35:05;3.45;;;0.77;;
22628;SDS011;11481;53.694;9.910;2022-08-01T13:37:35;2.25;;;0.60;;
22628;SDS011;11481;53.694;9.910;2022-08-01T13:40:04;5.20;;;1.15;;
22628;SDS011;11481;53.694;9.910;2022-08-01T13:42:32;1.35;;;0.55;;
22628;SDS011;11481;53.694;9.910;2022-08-01T13:45:00;2.72;;;0.65;;
22628;SDS011;11481;53.694;9.910;2022-08-01T13:47:28;0.68;;;0.45;;
22628;SDS011;11481;53.694;9.910;2022-08-01T13:49:57;4.65;;;0.93;;
22628;SDS011;11481;53.694;9.910;2022-08-01T13:52:26;2.17;;;0.77;;
22628;SDS011;11481;53.694;9.910;2022-08-01T13:54:53;2.42;;;0.80;;
22628;SDS011;11481;53.694;9.910;2022-08-01T13:57:20;5.43;;;0.73;;
22628;SDS011;11481;53.694;9.910;2022-08-01T13:59:47;4.03;;;1.23;;
22628;SDS011;11481;53.694;9.910;2022-08-01T14:02:14;2.35;;;0.60;;
22628;SDS011;11481;53.694;9.910;2022-08-01T14:04:41;6.30;;;1.13;;
22628;SDS011;11481;53.694;9.910;2022-08-01T14:07:08;1.38;;;0.50;;
22628;SDS011;11481;53.694;9.910;2022-08-01T14:09:40;12.02;;;1.85;;
22628;SDS011;11481;53.694;9.910;2022-08-01T14:12:28;1.80;;;0.73;;
22628;SDS011;11481;53.694;9.910;2022-08-01T14:14:54;2.20;;;0.57;;
22628;SDS011;11481;53.694;9.910;2022-08-01T14:17:22;5.10;;;0.93;;
22628;SDS011;11481;53.694;9.910;2022-08-01T14:19:49;3.40;;;0.70;;
22628;SDS011;11481;53.694;9.910;2022-08-01T14:22:15;6.28;;;0.70;;
22628;SDS011;11481;53.694;9.910;2022-08-01T14:24:42;1.67;;;0.60;;
22628;SDS011;11481;53.694;9.910;2022-08-01T14:27:09;1.92;;;0.85;;
22628;SDS011;11481;53.694;9.910;2022-08-01T14:29:36;5.97;;;0.90;;
22628;SDS011;11481;53.694;9.910;2022-08-01T14:32:22;4.45;;;1.17;;
22628;SDS011;11481;53.694;9.910;2022-08-01T14:34:54;4.97;;;1.02;;
22628;SDS011;11481;53.694;9.910;2022-08-01T14:37:21;1.00;;;0.70;;
22628;SDS011;11481;53.694;9.910;2022-08-01T14:39:55;5.47;;;0.90;;
22628;SDS011;11481;53.694;9.910;2022-08-01T14:42:24;3.80;;;0.75;;
22628;SDS011;11481;53.694;9.910;2022-08-01T14:44:51;1.38;;;0.60;;
22628;SDS011;11481;53.694;9.910;2022-08-01T14:47:18;2.00;;;0.85;;
22628;SDS011;11481;53.694;9.910;2022-08-01T14:49:47;3.95;;;0.90;;
22628;SDS011;11481;53.694;9.910;2022-08-01T14:52:15;5.40;;;1.27;;
22628;SDS011;11481;53.694;9.910;2022-08-01T14:54:41;3.80;;;0.85;;
22628;SDS011;11481;53.694;9.910;2022-08-01T14:57:08;3.53;;;0.90;;
22628;SDS011;11481;53.694;9.910;2022-08-01T14:59:35;2.67;;;0.80;;
22628;SDS011;11481;53.694;9.910;2022-08-01T15:02:02;2.25;;;0.60;;
22628;SDS011;11481;53.694;9.910;2022-08-01T15:04:30;4.07;;;1.05;;
22628;SDS011;11481;53.694;9.910;2022-08-01T15:06:56;7.55;;;1.13;;
22628;SDS011;11481;53.694;9.910;2022-08-01T15:09:23;1.80;;;0.85;;
22628;SDS011;11481;53.694;9.910;2022-08-01T15:11:50;3.05;;;1.17;;
22628;SDS011;11481;53.694;9.910;2022-08-01T15:14:16;7.65;;;1.35;;
22628;SDS011;11481;53.694;9.910;2022-08-01T15:17:02;2.00;;;0.90;;
22628;SDS011;11481;53.694;9.910;2022-08-01T15:19:28;2.10;;;1.17;;
22628;SDS011;11481;53.694;9.910;2022-08-01T15:21:55;2.80;;;0.90;;
22628;SDS011;11481;53.694;9.910;2022-08-01T15:24:22;4.15;;;0.85;;
22628;SDS011;11481;53.694;9.910;2022-08-01T15:26:48;4.63;;;0.90;;
22628;SDS011;11481;53.694;9.910;2022-08-01T15:29:16;3.50;;;1.30;;
22628;SDS011;11481;53.694;9.910;2022-08-01T15:31:43;4.00;;;1.17;;
22628;SDS011;11481;53.694;9.910;2022-08-01T15:34:09;2.40;;;0.85;;
22628;SDS011;11481;53.694;9.910;2022-08-01T15:36:36;5.20;;;1.00;;
22628;SDS011;11481;53.694;9.910;2022-08-01T15:39:07;3.95;;;1.10;;
22628;SDS011;11481;53.694;9.910;2022-08-01T15:41:34;4.63;;;1.33;;
22628;SDS011;11481;53.694;9.910;2022-08-01T15:44:01;4.38;;;1.10;;
22628;SDS011;11481;53.694;9.910;2022-08-01T15:46:28;1.83;;;0.98;;
22628;SDS011;11481;53.694;9.910;2022-08-01T15:48:54;5.40;;;1.10;;